Time;durP1;ratioP1;P1;durP2;ratioP2;P2;SDS_P1;SDS_P2;PMS_P1;PMS_P2;Temp;Humidity;BMP_temperature;BMP_pressure;BME280_temperature;BME280_humidity;BME280_pressure;Samples;Min_cycle;Max_cycle;Signal;HPM_P1;HPM_P2
2023/09/08 00:01:55;;;;;;;717.92;222.05;;;;;;;;;;5066012;28;20028;-53
2023/09/08 00:04:21;;;;;;;719.15;230.43;;;;;;;;;;5065737;28;20024;-54
2023/09/08 00:06:46;;;;;;;715.70;224.60;;;;;;;;;;5065977;28;20031;-53
2023/09/08 00:09:11;;;;;;;719.80;224.45;;;;;;;;;;5061854;28;20029;-50
2023/09/08 00:11:36;;;;;;;716.13;221.75;;;;;;;;;;5065783;28;20032;-53
2023/09/08 00:14:03;;;;;;;717.88;215.18;;;;;;;;;;5065749;28;20029;-55
2023/09/08 00:16:29;;;;;;;712.72;212.10;;;;;;;;;;5065977;28;20452;-52
2023/09/08 00:18:54;;;;;;;720.92;224.23;;;;;;;;;;5065757;28;20013;-55
2023/09/08 00:21:20;;;;;;;720.90;223.48;;;;;;;;;;5065192;28;20020;-54
2023/09/08 00:23:45;;;;;;;723.00;229.45;;;;;;;;;;5065679;28;20021;-51
2023/09/08 00:26:10;;;;;;;718.15;222.32;;;;;;;;;;5051542;28;20109;-53
2023/09/08 00:28:36;;;;;;;717.72;216.68;;;;;;;;;;5049340;28;20953;-54
2023/09/08 00:31:01;;;;;;;711.28;210.38;;;;;;;;;;5065135;28;20090;-52
2023/09/08 00:33:26;;;;;;;717.33;222.32;;;;;;;;;;5065098;28;20017;-54
2023/09/08 00:35:53;;;;;;;717.08;216.85;;;;;;;;;;5061777;28;20029;-53
2023/09/08 00:38:18;;;;;;;711.83;212.63;;;;;;;;;;5065461;28;20356;-51
2023/09/08 00:40:44;;;;;;;715.30;218.48;;;;;;;;;;5064909;28;20040;-55
2023/09/08 00:43:09;;;;;;;718.00;217.40;;;;;;;;;;5050943;28;20029;-54
2023/09/08 00:45:38;;;;;;;719.00;228.55;;;;;;;;;;5064098;28;20075;-52
2023/09/08 00:48:03;;;;;;;722.38;223.82;;;;;;;;;;5064821;28;20024;-50
2023/09/08 00:50:29;;;;;;;716.22;217.45;;;;;;;;;;5064500;28;20048;-55
2023/09/08 00:52:54;;;;;;;719.45;225.20;;;;;;;;;;5064750;28;20167;-54
2023/09/08 00:55:19;;;;;;;735.03;263.30;;;;;;;;;;5065061;28;20085;-52
2023/09/08 00:57:44;;;;;;;743.88;296.30;;;;;;;;;;5064682;28;20025;-53
2023/09/08 01:00:11;;;;;;;752.05;324.27;;;;;;;;;;5051124;28;20071;-52
2023/09/08 01:02:36;;;;;;;718.22;215.00;;;;;;;;;;5066726;28;20375;-49
2023/09/08 01:05:02;;;;;;;713.05;216.43;;;;;;;;;;5064552;28;20024;-52
2023/09/08 01:07:29;;;;;;;714.42;210.23;;;;;;;;;;5064770;28;20093;-50
2023/09/08 01:09:54;;;;;;;714.15;212.35;;;;;;;;;;5064524;28;20270;-54
2023/09/08 01:12:19;;;;;;;715.55;214.43;;;;;;;;;;5064173;28;20051;-52
2023/09/08 01:14:45;;;;;;;715.88;221.68;;;;;;;;;;5064514;28;20488;-53
2023/09/08 01:17:12;;;;;;;710.00;206.70;;;;;;;;;;5063496;28;20492;-54
2023/09/08 01:19:37;;;;;;;712.00;213.57;;;;;;;;;;5064287;28;20499;-50
2023/09/08 01:22:06;;;;;;;713.15;219.85;;;;;;;;;;5063877;28;20104;-52
2023/09/08 01:24:34;;;;;;;715.73;216.60;;;;;;;;;;5064414;28;20028;-52
2023/09/08 01:27:00;;;;;;;709.75;203.52;;;;;;;;;;5064017;28;20265;-52
2023/09/08 01:29:25;;;;;;;710.03;203.80;;;;;;;;;;5064551;28;20029;-52
2023/09/08 01:31:51;;;;;;;710.47;213.02;;;;;;;;;;5063889;28;20037;-55
2023/09/08 01:34:16;;;;;;;708.75;206.38;;;;;;;;;;5055190;28;20394;-53
2023/09/08 01:36:42;;;;;;;712.22;216.73;;;;;;;;;;5063905;28;20029;-53
2023/09/08 01:39:07;;;;;;;708.53;204.93;;;;;;;;;;5064139;28;20024;-54
2023/09/08 01:41:32;;;;;;;709.72;209.98;;;;;;;;;;5064255;28;20036;-49
2023/09/08 01:43:58;;;;;;;711.40;204.35;;;;;;;;;;5063659;28;20093;-54
2023/09/08 01:46:23;;;;;;;716.85;218.80;;;;;;;;;;5063641;28;20031;-51
2023/09/08 01:48:49;;;;;;;713.65;206.55;;;;;;;;;;5063681;28;20117;-53
2023/09/08 01:51:14;;;;;;;714.97;206.90;;;;;;;;;;5048941;28;20049;-53
2023/09/08 01:53:39;;;;;;;711.53;209.77;;;;;;;;;;5043832;28;20043;-54
2023/09/08 01:56:04;;;;;;;707.67;201.65;;;;;;;;;;5063079;28;20414;-49
2023/09/08 01:58:32;;;;;;;710.13;206.05;;;;;;;;;;5063271;28;20020;-52
2023/09/08 02:01:01;;;;;;;706.90;201.30;;;;;;;;;;5063628;28;20494;-50
2023/09/08 02:03:26;;;;;;;706.75;200.23;;;;;;;;;;5063379;28;20464;-50
2023/09/08 02:05:51;;;;;;;706.95;203.68;;;;;;;;;;5075821;28;20128;-53
2023/09/08 02:08:17;;;;;;;710.38;208.70;;;;;;;;;;5061979;28;20020;-52
2023/09/08 02:10:42;;;;;;;711.58;214.82;;;;;;;;;;5079140;28;20493;-54
2023/09/08 02:13:08;;;;;;;711.42;209.25;;;;;;;;;;5080865;28;20457;-50
2023/09/08 02:15:35;;;;;;;708.75;206.20;;;;;;;;;;5083360;28;20453;-54
2023/09/08 02:18:00;;;;;;;709.40;207.63;;;;;;;;;;5083374;28;20034;-51
2023/09/08 02:20:25;;;;;;;710.38;213.65;;;;;;;;;;5083102;28;20024;-56
2023/09/08 02:22:53;;;;;;;706.70;205.35;;;;;;;;;;5079961;28;20111;-54
2023/09/08 02:25:18;;;;;;;704.95;203.18;;;;;;;;;;5062599;28;20617;-54
2023/09/08 02:27:44;;;;;;;707.70;205.63;;;;;;;;;;5062984;28;20466;-54
2023/09/08 02:30:09;;;;;;;706.05;195.60;;;;;;;;;;5063337;28;20017;-54
2023/09/08 02:32:34;;;;;;;710.78;208.07;;;;;;;;;;5062793;28;20031;-55
2023/09/08 02:35:00;;;;;;;702.20;200.70;;;;;;;;;;5071802;28;20110;-56
2023/09/08 02:37:25;;;;;;;705.42;206.60;;;;;;;;;;5083320;28;20027;-53
2023/09/08 02:39:50;;;;;;;703.80;201.32;;;;;;;;;;5083146;28;20395;-52
2023/09/08 02:42:15;;;;;;;710.58;211.63;;;;;;;;;;5067086;28;20116;-52
2023/09/08 02:44:41;;;;;;;704.10;203.90;;;;;;;;;;5048225;28;20466;-52
2023/09/08 02:47:06;;;;;;;706.20;204.38;;;;;;;;;;5061860;28;20020;-52
2023/09/08 02:49:32;;;;;;;705.97;202.70;;;;;;;;;;5064734;28;20078;-52
2023/09/08 02:51:57;;;;;;;705.97;201.65;;;;;;;;;;5082927;28;20475;-54
2023/09/08 02:54:22;;;;;;;705.30;205.10;;;;;;;;;;5082994;28;20506;-54
2023/09/08 02:56:48;;;;;;;706.55;202.13;;;;;;;;;;5082693;28;20538;-53
2023/09/08 02:59:13;;;;;;;706.33;203.13;;;;;;;;;;5053718;28;20096;-54
2023/09/08 03:01:38;;;;;;;708.35;206.05;;;;;;;;;;5063109;28;20055;-50
2023/09/08 03:04:04;;;;;;;706.15;203.00;;;;;;;;;;5062642;28;20507;-51
2023/09/08 03:06:29;;;;;;;707.83;207.73;;;;;;;;;;5062742;28;20119;-53
2023/09/08 03:08:54;;;;;;;708.42;212.77;;;;;;;;;;5062439;28;20464;-53
2023/09/08 03:11:19;;;;;;;706.45;207.55;;;;;;;;;;5064039;28;20063;-53
2023/09/08 03:13:45;;;;;;;709.25;207.10;;;;;;;;;;5062823;28;20369;-53
2023/09/08 03:16:10;;;;;;;703.58;199.48;;;;;;;;;;5049102;28;20021;-54
2023/09/08 03:18:36;;;;;;;704.88;202.65;;;;;;;;;;5042492;28;20456;-51
2023/09/08 03:21:11;;;;;;;703.38;199.93;;;;;;;;;;5056825;28;20032;-51
2023/09/08 03:23:36;;;;;;;708.15;206.88;;;;;;;;;;5062539;28;20475;-56
2023/09/08 03:26:02;;;;;;;706.47;203.80;;;;;;;;;;5062717;28;20059;-54
2023/09/08 03:28:27;;;;;;;705.13;200.63;;;;;;;;;;5062602;28;20024;-55
2023/09/08 03:30:52;;;;;;;702.40;195.02;;;;;;;;;;5062512;28;20060;-54
2023/09/08 03:33:17;;;;;;;705.13;200.27;;;;;;;;;;5047394;28;20362;-53
2023/09/08 03:35:43;;;;;;;705.53;202.73;;;;;;;;;;5064284;28;20035;-53
2023/09/08 03:38:08;;;;;;;701.85;197.45;;;;;;;;;;5082726;28;20156;-53
2023/09/08 03:40:33;;;;;;;701.50;193.60;;;;;;;;;;5082225;28;20491;-53
2023/09/08 03:42:59;;;;;;;702.47;197.35;;;;;;;;;;5082279;28;20020;-52
2023/09/08 03:45:24;;;;;;;701.65;196.05;;;;;;;;;;5082089;28;20024;-49
2023/09/08 03:47:49;;;;;;;701.55;192.02;;;;;;;;;;5082587;28;20499;-52
2023/09/08 03:50:14;;;;;;;699.40;191.52;;;;;;;;;;5058354;28;20464;-53
2023/09/08 03:52:40;;;;;;;699.85;192.57;;;;;;;;;;5062345;28;20036;-54
2023/09/08 03:55:05;;;;;;;694.63;185.70;;;;;;;;;;5062401;28;20077;-54
2023/09/08 03:57:31;;;;;;;699.58;192.50;;;;;;;;;;5062496;28;20464;-55
2023/09/08 03:59:56;;;;;;;697.25;184.77;;;;;;;;;;5063134;28;20468;-54
2023/09/08 04:02:21;;;;;;;701.70;195.00;;;;;;;;;;5062099;28;20025;-55
2023/09/08 04:04:46;;;;;;;698.13;187.80;;;;;;;;;;5062215;28;20479;-54
2023/09/08 04:07:12;;;;;;;700.60;191.40;;;;;;;;;;5048405;28;20021;-54
2023/09/08 04:09:37;;;;;;;702.08;198.50;;;;;;;;;;5042255;28;20605;-55
2023/09/08 04:12:02;;;;;;;702.33;195.00;;;;;;;;;;5064638;28;20033;-51
2023/09/08 04:14:28;;;;;;;701.03;192.35;;;;;;;;;;5065687;28;20032;-53
2023/09/08 04:16:53;;;;;;;697.80;181.60;;;;;;;;;;5083815;28;20529;-52
2023/09/08 04:19:19;;;;;;;699.22;193.85;;;;;;;;;;5085264;28;20020;-55
2023/09/08 04:21:44;;;;;;;704.70;191.85;;;;;;;;;;5076087;28;20158;-55
2023/09/08 04:24:10;;;;;;;701.58;195.40;;;;;;;;;;5064278;28;20035;-52
2023/09/08 04:26:35;;;;;;;704.22;194.90;;;;;;;;;;5065839;28;20039;-51
2023/09/08 04:29:01;;;;;;;698.83;191.05;;;;;;;;;;5065164;28;20028;-52
2023/09/08 04:31:26;;;;;;;697.10;188.23;;;;;;;;;;5065410;28;20575;-55
2023/09/08 04:33:53;;;;;;;702.22;194.10;;;;;;;;;;5065119;28;20027;-51
2023/09/08 04:36:18;;;;;;;698.80;186.25;;;;;;;;;;5064893;28;20445;-52
2023/09/08 04:38:44;;;;;;;702.08;185.02;;;;;;;;;;5065221;28;20013;-49
2023/09/08 04:41:09;;;;;;;694.53;183.20;;;;;;;;;;5064606;28;20021;-55
2023/09/08 04:43:35;;;;;;;698.97;183.38;;;;;;;;;;5064910;28;20079;-55
2023/09/08 04:46:02;;;;;;;699.85;183.02;;;;;;;;;;5065064;28;20044;-53
2023/09/08 04:48:28;;;;;;;698.55;187.25;;;;;;;;;;5065358;28;20017;-53
2023/09/08 04:50:53;;;;;;;701.70;191.60;;;;;;;;;;5064348;28;20041;-52
2023/09/08 04:53:18;;;;;;;708.50;198.30;;;;;;;;;;5064847;28;20515;-53
2023/09/08 04:55:43;;;;;;;707.30;203.02;;;;;;;;;;5062082;28;20036;-53
2023/09/08 04:58:09;;;;;;;705.22;193.70;;;;;;;;;;5064040;28;20149;-53
2023/09/08 05:00:34;;;;;;;711.85;209.45;;;;;;;;;;5064603;28;20017;-55
2023/09/08 05:02:59;;;;;;;708.80;215.63;;;;;;;;;;5064126;28;20467;-52
2023/09/08 05:05:25;;;;;;;707.55;211.95;;;;;;;;;;5063309;28;20017;-52
2023/09/08 05:07:53;;;;;;;715.55;225.57;;;;;;;;;;5064112;28;20130;-54
2023/09/08 05:10:19;;;;;;;726.05;239.45;;;;;;;;;;5064477;28;20025;-54
2023/09/08 05:12:44;;;;;;;728.28;250.40;;;;;;;;;;5064058;28;20033;-51
2023/09/08 05:15:14;;;;;;;724.13;251.35;;;;;;;;;;5051242;28;20114;-55
2023/09/08 05:17:40;;;;;;;734.88;278.25;;;;;;;;;;5064260;28;20030;-57
2023/09/08 05:20:05;;;;;;;739.15;289.27;;;;;;;;;;5064360;28;20058;-56
2023/09/08 05:22:31;;;;;;;745.03;299.70;;;;;;;;;;5063949;28;20028;-53
2023/09/08 05:24:56;;;;;;;742.75;306.65;;;;;;;;;;5064248;28;20495;-56
2023/09/08 05:27:21;;;;;;;754.78;333.75;;;;;;;;;;5082581;28;20031;-54
2023/09/08 05:29:46;;;;;;;748.88;322.98;;;;;;;;;;5064673;28;20032;-55
2023/09/08 05:32:12;;;;;;;757.65;344.10;;;;;;;;;;5055025;28;20021;-52
2023/09/08 05:34:37;;;;;;;770.50;355.73;;;;;;;;;;5044135;28;20017;-53
2023/09/08 12:45:07;;;;;;;937.95;838.38;;;;;;;;;;5095218;27;20384;-50
2023/09/08 12:47:32;;;;;;;933.13;833.72;;;;;;;;;;5080110;28;20033;-51
2023/09/08 12:49:58;;;;;;;947.88;845.65;;;;;;;;;;5078003;28;20028;-53
2023/09/08 12:52:23;;;;;;;953.78;849.75;;;;;;;;;;5081621;28;20120;-54
2023/09/08 12:54:48;;;;;;;935.28;834.25;;;;;;;;;;5079452;28;20069;-54
2023/09/08 12:57:13;;;;;;;897.75;799.85;;;;;;;;;;5074893;28;20107;-53
2023/09/08 12:59:39;;;;;;;925.95;824.45;;;;;;;;;;5070611;28;20189;-52
2023/09/08 13:02:04;;;;;;;962.40;858.80;;;;;;;;;;5081730;28;20496;-50
2023/09/08 13:04:30;;;;;;;958.25;854.75;;;;;;;;;;5083334;28;20035;-52
2023/09/08 13:06:57;;;;;;;963.28;859.35;;;;;;;;;;5075617;28;20409;-52
2023/09/08 13:09:22;;;;;;;958.90;855.58;;;;;;;;;;5081003;28;20021;-50
2023/09/08 13:11:48;;;;;;;960.70;857.30;;;;;;;;;;5081482;28;20050;-52
2023/09/08 13:14:13;;;;;;;966.20;861.25;;;;;;;;;;5078564;28;20109;-52
2023/09/08 13:16:38;;;;;;;911.30;814.33;;;;;;;;;;5078342;28;20036;-50
2023/09/08 13:19:04;;;;;;;877.72;783.75;;;;;;;;;;5079034;28;20024;-50
2023/09/08 13:21:30;;;;;;;946.88;844.58;;;;;;;;;;5079305;28;20043;-51
2023/09/08 13:23:55;;;;;;;945.28;842.53;;;;;;;;;;5077834;28;20028;-51
2023/09/08 13:26:21;;;;;;;949.50;846.22;;;;;;;;;;5078796;28;20031;-51
2023/09/08 13:28:46;;;;;;;927.63;824.13;;;;;;;;;;5080843;28;20024;-53
2023/09/08 13:31:12;;;;;;;900.13;787.72;;;;;;;;;;5081064;28;20024;-51
2023/09/08 13:33:38;;;;;;;913.47;794.72;;;;;;;;;;5075827;28;20059;-53
2023/09/08 13:36:03;;;;;;;893.05;782.85;;;;;;;;;;5077348;28;20024;-52
2023/09/08 13:38:28;;;;;;;884.35;779.83;;;;;;;;;;5068210;28;20029;-52
2023/09/08 13:40:54;;;;;;;904.63;804.47;;;;;;;;;;5073320;28;20068;-53
2023/09/08 13:43:20;;;;;;;894.08;789.97;;;;;;;;;;5077311;28;20520;-51
2023/09/08 13:45:45;;;;;;;897.28;781.97;;;;;;;;;;5065302;28;20693;-54
2023/09/08 13:48:11;;;;;;;890.92;793.60;;;;;;;;;;5064423;28;20067;-49
2023/09/08 13:50:38;;;;;;;893.53;795.38;;;;;;;;;;5081204;28;20012;-53
2023/09/08 13:53:04;;;;;;;882.83;785.83;;;;;;;;;;5057898;28;20052;-51
2023/09/08 13:55:29;;;;;;;891.05;791.33;;;;;;;;;;5071935;28;21625;-50
2023/09/08 13:57:55;;;;;;;887.60;779.57;;;;;;;;;;5062700;28;20025;-54
2023/09/08 14:00:20;;;;;;;884.35;778.35;;;;;;;;;;5062276;28;20785;-53
2023/09/08 14:02:45;;;;;;;887.70;774.90;;;;;;;;;;5061708;28;20484;-53
2023/09/08 14:05:11;;;;;;;879.45;763.47;;;;;;;;;;5069443;28;20667;-48
2023/09/08 14:07:36;;;;;;;876.67;769.33;;;;;;;;;;5069600;28;20749;-52
2023/09/08 14:10:07;;;;;;;880.40;766.95;;;;;;;;;;5065713;28;20115;-51
2023/09/08 14:12:33;;;;;;;873.17;757.42;;;;;;;;;;5065037;28;20481;-54
2023/09/08 14:14:59;;;;;;;875.05;751.78;;;;;;;;;;5067398;28;20508;-54
2023/09/08 14:17:24;;;;;;;871.00;750.33;;;;;;;;;;5066860;28;20064;-54
2023/09/08 14:19:50;;;;;;;870.20;757.53;;;;;;;;;;5015141;28;20075;-53
2023/09/08 14:22:15;;;;;;;875.63;758.95;;;;;;;;;;5053681;28;20167;-53
2023/09/08 14:24:41;;;;;;;881.28;762.45;;;;;;;;;;5049149;28;20099;-53
2023/09/08 14:27:07;;;;;;;877.75;760.42;;;;;;;;;;5066202;28;20029;-52
2023/09/08 14:29:35;;;;;;;870.83;763.95;;;;;;;;;;5058258;28;20031;-53
2023/09/08 14:32:00;;;;;;;870.30;750.67;;;;;;;;;;5068784;28;20027;-50
2023/09/08 14:34:26;;;;;;;868.92;753.58;;;;;;;;;;5048554;28;20036;-52
2023/09/08 14:36:52;;;;;;;869.63;761.40;;;;;;;;;;5067329;28;20532;-52
2023/09/08 14:39:18;;;;;;;871.42;763.13;;;;;;;;;;5066687;28;20024;-52
2023/09/08 14:41:49;;;;;;;866.17;751.42;;;;;;;;;;5061678;28;20219;-50
2023/09/08 14:44:15;;;;;;;878.60;770.33;;;;;;;;;;5058383;28;20041;-52
2023/09/08 14:46:40;;;;;;;877.17;775.75;;;;;;;;;;5057727;28;20036;-54
2023/09/08 14:49:06;;;;;;;874.25;763.13;;;;;;;;;;5059857;28;20031;-52
2023/09/08 14:51:31;;;;;;;880.85;766.47;;;;;;;;;;5062391;28;20029;-54
2023/09/08 14:53:57;;;;;;;879.60;762.40;;;;;;;;;;5060377;28;20469;-53
2023/09/08 14:56:22;;;;;;;874.75;765.75;;;;;;;;;;5060914;28;20021;-51
2023/09/08 14:58:48;;;;;;;874.15;761.42;;;;;;;;;;5055778;28;20462;-52
2023/09/08 15:01:14;;;;;;;868.22;752.75;;;;;;;;;;5059379;28;20544;-52
2023/09/08 15:03:39;;;;;;;874.58;762.90;;;;;;;;;;5041693;28;20040;-50
2023/09/08 15:06:04;;;;;;;875.92;752.30;;;;;;;;;;5061261;28;20032;-54
2023/09/08 15:08:30;;;;;;;867.38;754.50;;;;;;;;;;5062986;28;20038;-55
2023/09/08 15:10:55;;;;;;;870.35;750.13;;;;;;;;;;5058767;28;20013;-53
2023/09/08 15:13:21;;;;;;;859.90;748.40;;;;;;;;;;5058026;28;20420;-51
2023/09/08 15:15:47;;;;;;;855.53;728.78;;;;;;;;;;5060450;28;20025;-54
2023/09/08 15:18:13;;;;;;;868.78;741.92;;;;;;;;;;5052478;28;20113;-50
2023/09/08 15:20:40;;;;;;;860.30;746.80;;;;;;;;;;5053490;28;20051;-54
2023/09/08 15:23:06;;;;;;;857.72;738.15;;;;;;;;;;5052392;28;20125;-53
2023/09/08 15:25:31;;;;;;;860.53;739.40;;;;;;;;;;5058417;28;20123;-53
2023/09/08 15:27:57;;;;;;;856.30;726.60;;;;;;;;;;5051507;28;20064;-54
2023/09/08 15:30:22;;;;;;;860.22;734.15;;;;;;;;;;5057259;28;20158;-53
2023/09/08 15:32:48;;;;;;;855.15;729.92;;;;;;;;;;5057692;28;20069;-53
2023/09/08 15:35:13;;;;;;;854.67;729.60;;;;;;;;;;5063848;28;20035;-54
2023/09/08 15:37:39;;;;;;;855.25;727.65;;;;;;;;;;5066611;28;20028;-52
2023/09/08 15:40:05;;;;;;;864.25;723.55;;;;;;;;;;5066048;28;20047;-51
2023/09/08 15:42:30;;;;;;;853.90;714.30;;;;;;;;;;5022774;28;20048;-50
2023/09/08 15:44:56;;;;;;;862.35;744.13;;;;;;;;;;5061026;28;20052;-50
2023/09/08 15:47:21;;;;;;;861.15;743.72;;;;;;;;;;5064700;28;20035;-55
2023/09/08 15:49:47;;;;;;;870.72;745.58;;;;;;;;;;5065743;28;20417;-53
2023/09/08 15:52:13;;;;;;;864.88;730.30;;;;;;;;;;5064421;28;20384;-48
2023/09/08 15:54:39;;;;;;;863.55;733.00;;;;;;;;;;5065958;28;20040;-49
2023/09/08 15:57:07;;;;;;;858.58;730.38;;;;;;;;;;5051395;28;20028;-51
2023/09/08 15:59:32;;;;;;;861.22;728.03;;;;;;;;;;5065918;28;20031;-49
2023/09/08 16:01:58;;;;;;;862.65;738.35;;;;;;;;;;5064239;28;20040;-50
2023/09/08 16:04:24;;;;;;;688.05;386.40;;;;;;;;;;5065255;28;20397;-52
2023/09/08 16:06:49;;;;;;;690.97;383.27;;;;;;;;;;5062816;28;20020;-52
2023/09/08 16:09:15;;;;;;;676.10;285.75;;;;;;;;;;5046623;28;20481;-50
2023/09/08 16:11:41;;;;;;;678.47;279.15;;;;;;;;;;5051535;28;20029;-51
2023/09/08 16:14:06;;;;;;;686.60;317.77;;;;;;;;;;5064064;28;20058;-49
2023/09/08 16:16:32;;;;;;;689.25;332.15;;;;;;;;;;5045149;28;20036;-47
2023/09/08 16:18:57;;;;;;;690.20;316.00;;;;;;;;;;5060324;28;20025;-48
2023/09/08 16:21:23;;;;;;;684.78;322.75;;;;;;;;;;5065278;28;20377;-49
2023/09/08 16:23:48;;;;;;;711.88;445.40;;;;;;;;;;5065956;28;20082;-48
2023/09/08 16:26:13;;;;;;;695.70;370.42;;;;;;;;;;5063499;28;20052;-49
2023/09/08 16:28:39;;;;;;;686.38;321.05;;;;;;;;;;5065412;28;20150;-48
2023/09/08 16:31:05;;;;;;;680.35;299.85;;;;;;;;;;5061118;28;20020;-49
2023/09/08 16:33:31;;;;;;;692.30;327.05;;;;;;;;;;5063008;28;20124;-48
2023/09/08 16:35:57;;;;;;;684.72;312.73;;;;;;;;;;5051690;28;20104;-49
2023/09/08 16:38:22;;;;;;;682.03;309.27;;;;;;;;;;5060848;28;20452;-47
2023/09/08 16:40:48;;;;;;;689.10;308.33;;;;;;;;;;5061567;28;20295;-50
2023/09/08 16:43:15;;;;;;;680.90;275.13;;;;;;;;;;5065835;28;20064;-47
2023/09/08 16:45:41;;;;;;;682.25;279.50;;;;;;;;;;5053103;28;20056;-47
2023/09/08 16:48:06;;;;;;;675.28;264.77;;;;;;;;;;5066108;28;20048;-50
2023/09/08 16:50:32;;;;;;;674.88;262.25;;;;;;;;;;5045440;28;20056;-47
2023/09/08 16:52:57;;;;;;;680.67;269.60;;;;;;;;;;5063893;28;20039;-51
2023/09/08 16:55:23;;;;;;;677.55;268.05;;;;;;;;;;5053407;28;20131;-50
2023/09/08 16:57:48;;;;;;;676.15;265.15;;;;;;;;;;5062461;28;20337;-50
2023/09/08 17:00:14;;;;;;;673.03;248.93;;;;;;;;;;5063681;28;20451;-49
2023/09/08 17:02:39;;;;;;;680.97;257.50;;;;;;;;;;5064355;28;20598;-48
2023/09/08 17:05:05;;;;;;;672.42;242.48;;;;;;;;;;5052545;28;20025;-47
2023/09/08 17:07:31;;;;;;;668.45;225.20;;;;;;;;;;5063547;28;20043;-48
2023/09/08 17:09:56;;;;;;;676.65;227.63;;;;;;;;;;5064822;28;20074;-47
2023/09/08 17:12:22;;;;;;;668.95;211.45;;;;;;;;;;5043656;28;20484;-47
2023/09/08 17:14:48;;;;;;;671.42;217.90;;;;;;;;;;5065527;28;20024;-47
2023/09/08 17:17:13;;;;;;;670.40;214.63;;;;;;;;;;5063767;28;20024;-50
2023/09/08 17:19:39;;;;;;;674.10;222.65;;;;;;;;;;5028208;28;20037;-47
2023/09/08 17:22:06;;;;;;;666.63;213.05;;;;;;;;;;5053714;28;20032;-50
2023/09/08 17:24:31;;;;;;;671.38;218.75;;;;;;;;;;5049774;28;20047;-46
2023/09/08 17:26:57;;;;;;;669.13;206.23;;;;;;;;;;5062940;28;20539;-47
2023/09/08 17:29:22;;;;;;;681.60;239.65;;;;;;;;;;5068956;28;20086;-48
2023/09/08 17:31:48;;;;;;;671.47;230.55;;;;;;;;;;5068247;28;20016;-46
2023/09/08 17:34:19;;;;;;;677.88;233.65;;;;;;;;;;5068736;28;20032;-48
2023/09/08 17:36:45;;;;;;;677.33;227.13;;;;;;;;;;5067368;28;20037;-46
2023/09/08 17:39:11;;;;;;;673.97;200.27;;;;;;;;;;5049764;28;20033;-46
2023/09/08 17:41:37;;;;;;;678.72;218.32;;;;;;;;;;5067394;28;20449;-46
2023/09/08 17:44:02;;;;;;;673.55;217.93;;;;;;;;;;5032823;28;20128;-49
2023/09/08 17:46:28;;;;;;;668.20;195.50;;;;;;;;;;5059013;28;20032;-46
2023/09/08 17:48:53;;;;;;;663.38;193.98;;;;;;;;;;5059696;28;20249;-47
2023/09/08 17:51:20;;;;;;;665.85;200.35;;;;;;;;;;5048123;28;20029;-48
2023/09/08 17:53:47;;;;;;;661.85;183.63;;;;;;;;;;5048708;28;20028;-47
2023/09/08 17:56:12;;;;;;;664.35;190.32;;;;;;;;;;5056460;28;20055;-50
2023/09/08 17:58:38;;;;;;;668.65;195.25;;;;;;;;;;5068471;28;20057;-46
2023/09/08 18:01:03;;;;;;;665.67;202.60;;;;;;;;;;5063881;28;20020;-46
2023/09/08 18:03:29;;;;;;;662.78;210.70;;;;;;;;;;5058508;28;20074;-46
2023/09/08 18:05:54;;;;;;;664.20;195.32;;;;;;;;;;5048705;28;20025;-46
2023/09/08 18:08:20;;;;;;;665.72;188.68;;;;;;;;;;5048259;28;20029;-46
2023/09/08 18:10:46;;;;;;;667.30;201.55;;;;;;;;;;5057221;28;20712;-48
2023/09/08 18:13:12;;;;;;;666.47;195.05;;;;;;;;;;5068269;28;20587;-48
2023/09/08 18:15:37;;;;;;;663.97;180.55;;;;;;;;;;5066917;28;20016;-50
2023/09/08 18:18:03;;;;;;;664.90;174.80;;;;;;;;;;5066756;28;20029;-48
2023/09/08 18:20:29;;;;;;;658.40;175.88;;;;;;;;;;5056970;28;21031;-47
2023/09/08 18:22:54;;;;;;;661.70;181.13;;;;;;;;;;5032199;28;20040;-48
2023/09/08 18:25:21;;;;;;;666.20;188.27;;;;;;;;;;5060300;28;20029;-47
2023/09/08 18:27:47;;;;;;;654.47;168.75;;;;;;;;;;5048682;28;20037;-47
2023/09/08 18:30:12;;;;;;;660.33;168.40;;;;;;;;;;5045290;28;20040;-50
2023/09/08 18:32:40;;;;;;;657.25;168.45;;;;;;;;;;5065920;28;20547;-46
2023/09/08 18:35:05;;;;;;;660.33;176.48;;;;;;;;;;5067684;28;20415;-47
2023/09/08 18:37:31;;;;;;;655.50;168.43;;;;;;;;;;5066320;28;20025;-46
2023/09/08 18:39:57;;;;;;;657.55;172.70;;;;;;;;;;5067124;28;20239;-46
2023/09/08 18:42:24;;;;;;;661.10;191.60;;;;;;;;;;5065960;28;20247;-48
2023/09/08 18:44:50;;;;;;;660.15;181.65;;;;;;;;;;5067333;28;20052;-48
2023/09/08 18:47:15;;;;;;;661.33;183.10;;;;;;;;;;5065848;28;20040;-46
2023/09/08 18:49:40;;;;;;;660.17;193.13;;;;;;;;;;5068846;28;20602;-48
2023/09/08 18:52:06;;;;;;;664.88;196.98;;;;;;;;;;5062401;28;20083;-47
2023/09/08 18:54:32;;;;;;;664.75;187.52;;;;;;;;;;5066453;28;20126;-49
2023/09/08 18:56:57;;;;;;;665.38;190.43;;;;;;;;;;5064343;28;20024;-51
2023/09/08 18:59:23;;;;;;;667.58;174.88;;;;;;;;;;5048241;28;20036;-48
2023/09/08 19:01:49;;;;;;;661.70;175.02;;;;;;;;;;5051110;28;20478;-46
2023/09/08 19:04:15;;;;;;;671.30;184.32;;;;;;;;;;5047431;28;20483;-48
2023/09/08 19:06:42;;;;;;;660.05;172.18;;;;;;;;;;5054110;28;20028;-51
2023/09/08 19:09:07;;;;;;;661.58;161.13;;;;;;;;;;5066540;28;20054;-49
2023/09/08 19:11:33;;;;;;;662.65;168.23;;;;;;;;;;5056233;28;20021;-48
2023/09/08 19:14:00;;;;;;;658.40;172.38;;;;;;;;;;5047049;28;20025;-47
2023/09/08 19:16:27;;;;;;;654.75;162.32;;;;;;;;;;5051127;28;20505;-48
2023/09/08 19:18:52;;;;;;;658.88;164.00;;;;;;;;;;5060051;28;20032;-50
2023/09/08 19:21:18;;;;;;;657.85;163.10;;;;;;;;;;5052472;28;20781;-47
2023/09/08 19:23:45;;;;;;;650.38;152.07;;;;;;;;;;5067713;28;21270;-50
2023/09/08 19:26:10;;;;;;;657.15;171.07;;;;;;;;;;5030466;28;20033;-50
2023/09/08 19:28:36;;;;;;;658.78;164.57;;;;;;;;;;5046229;28;20074;-49
2023/09/08 19:31:03;;;;;;;656.10;158.75;;;;;;;;;;5060655;28;20033;-48
2023/09/08 19:33:29;;;;;;;662.17;162.85;;;;;;;;;;5048142;28;20025;-50
2023/09/08 19:35:55;;;;;;;655.63;152.48;;;;;;;;;;5049001;28;20032;-50
2023/09/08 19:38:21;;;;;;;656.88;154.88;;;;;;;;;;5048134;28;20483;-49
2023/09/08 19:40:47;;;;;;;659.05;162.13;;;;;;;;;;5051809;28;20029;-48
2023/09/08 19:43:13;;;;;;;660.03;165.50;;;;;;;;;;5061997;28;20056;-48
2023/09/08 19:45:38;;;;;;;651.83;156.95;;;;;;;;;;5050490;28;20095;-48
2023/09/08 19:48:05;;;;;;;656.33;155.30;;;;;;;;;;5047935;28;20347;-48
2023/09/08 19:50:31;;;;;;;659.50;154.40;;;;;;;;;;5049823;28;20028;-50
2023/09/08 19:52:58;;;;;;;657.42;158.25;;;;;;;;;;5067154;28;20040;-52
2023/09/08 19:55:23;;;;;;;650.35;148.95;;;;;;;;;;5028671;28;20082;-50
2023/09/08 19:57:49;;;;;;;651.97;154.90;;;;;;;;;;5062035;28;20112;-48
2023/09/08 20:00:15;;;;;;;654.30;155.95;;;;;;;;;;5045328;28;20071;-49
2023/09/08 20:02:41;;;;;;;645.22;146.65;;;;;;;;;;5061469;28;20067;-49
2023/09/08 20:05:07;;;;;;;652.38;148.52;;;;;;;;;;5046058;28;20032;-48
2023/09/08 20:07:34;;;;;;;653.75;146.73;;;;;;;;;;5047455;28;20033;-47
2023/09/08 20:09:59;;;;;;;648.58;146.40;;;;;;;;;;5046458;28;20021;-49
2023/09/08 20:12:25;;;;;;;651.20;148.50;;;;;;;;;;5058449;28;20029;-48
2023/09/08 20:14:51;;;;;;;650.08;143.23;;;;;;;;;;5047753;28;20044;-51
2023/09/08 20:17:17;;;;;;;649.42;143.75;;;;;;;;;;5064123;28;20029;-49
2023/09/08 20:19:44;;;;;;;651.05;141.07;;;;;;;;;;5066383;28;20033;-49
2023/09/08 20:22:10;;;;;;;647.65;143.93;;;;;;;;;;5066996;28;20033;-52
2023/09/08 20:24:36;;;;;;;641.97;137.73;;;;;;;;;;5067026;28;20027;-48
2023/09/08 20:27:02;;;;;;;643.70;137.52;;;;;;;;;;5065318;28;20531;-48
2023/09/08 20:29:28;;;;;;;646.30;142.60;;;;;;;;;;5065814;28;20492;-49
2023/09/08 20:31:53;;;;;;;649.17;141.48;;;;;;;;;;5065966;28;20059;-50
2023/09/08 20:34:20;;;;;;;642.63;141.35;;;;;;;;;;5066626;28;20078;-47
2023/09/08 20:36:46;;;;;;;645.65;140.57;;;;;;;;;;5062187;28;20670;-49
2023/09/08 20:39:12;;;;;;;641.75;138.43;;;;;;;;;;5064624;28;20029;-48
2023/09/08 20:41:37;;;;;;;639.97;137.77;;;;;;;;;;5058975;28;20024;-48
2023/09/08 20:44:03;;;;;;;22.23;20.08;;;;;;;;;;5064933;28;20064;-46
2023/09/08 20:46:28;;;;;;;19.48;17.55;;;;;;;;;;5029378;28;20036;-49
2023/09/08 20:48:54;;;;;;;287.73;70.68;;;;;;;;;;5053275;28;20535;-48
2023/09/08 20:51:20;;;;;;;638.75;137.10;;;;;;;;;;5043620;28;20506;-46